createdAt,value
2018-12-20T00:00:32.728Z,10.08
2018-12-20T00:03:01.043Z,10.90
2018-12-20T00:05:29.351Z,10.82
2018-12-20T00:07:57.508Z,11.45
2018-12-20T00:10:25.638Z,10.48
2018-12-20T00:12:53.780Z,11.45
2018-12-20T00:15:22.024Z,10.85
2018-12-20T00:17:51.808Z,11.43
2018-12-20T00:20:19.926Z,10.63
2018-12-20T00:22:48.102Z,11.73
2018-12-20T00:25:16.366Z,12.45
2018-12-20T00:27:44.588Z,11.65
2018-12-20T00:30:12.807Z,10.03
2018-12-20T00:32:41.022Z,11.73
2018-12-20T00:35:09.191Z,11.90
2018-12-20T00:37:37.575Z,11.65
2018-12-20T00:40:07.011Z,11.00
2018-12-20T00:42:35.514Z,12.73
2018-12-20T00:45:04.005Z,10.25
2018-12-20T00:47:32.273Z,11.12
2018-12-20T00:50:00.566Z,12.47
2018-12-20T00:52:28.763Z,13.13
2018-12-20T00:54:56.916Z,11.60
2018-12-20T00:57:25.124Z,12.90
2018-12-20T00:59:53.465Z,13.53
2018-12-20T01:02:21.701Z,13.93
2018-12-20T01:04:49.983Z,12.45
2018-12-20T01:07:18.262Z,13.53
2018-12-20T01:09:46.453Z,14.30
2018-12-20T01:12:14.576Z,12.03
2018-12-20T01:14:45.503Z,14.00
2018-12-20T01:17:12.848Z,12.28
2018-12-20T01:19:41.155Z,11.40
2018-12-20T01:22:09.425Z,14.35
2018-12-20T01:24:37.640Z,14.13
2018-12-20T01:27:05.937Z,13.32
2018-12-20T01:29:34.211Z,12.73
2018-12-20T01:32:02.419Z,13.95
2018-12-20T01:34:30.619Z,13.90
2018-12-20T01:36:58.821Z,12.78
2018-12-20T01:39:26.975Z,13.03
2018-12-20T01:41:55.157Z,14.60
2018-12-20T01:44:23.292Z,13.80
2018-12-20T01:46:51.781Z,13.50
2018-12-20T01:49:20.000Z,14.45
2018-12-20T01:51:48.443Z,14.63
2018-12-20T01:54:16.621Z,12.37
2018-12-20T01:56:44.836Z,13.43
2018-12-20T01:59:13.233Z,15.13
2018-12-20T02:01:41.375Z,15.00
2018-12-20T02:04:09.617Z,15.83
2018-12-20T02:06:38.019Z,15.85
2018-12-20T02:09:08.670Z,17.15
2018-12-20T02:11:37.109Z,16.15
2018-12-20T02:14:05.463Z,15.88
2018-12-20T02:16:33.820Z,17.32
2018-12-20T02:19:02.272Z,16.20
2018-12-20T02:21:30.618Z,13.75
2018-12-20T02:23:58.944Z,14.23
2018-12-20T02:26:27.077Z,14.20
2018-12-20T02:28:55.296Z,15.25
2018-12-20T02:31:23.499Z,15.88
2018-12-20T02:33:51.713Z,16.37
2018-12-20T02:36:19.848Z,14.47
2018-12-20T02:38:47.972Z,14.38
2018-12-20T02:41:16.234Z,14.93
2018-12-20T02:43:44.463Z,15.03
2018-12-20T02:46:12.717Z,12.95
2018-12-20T02:48:40.870Z,13.15
2018-12-20T02:51:09.433Z,13.43
2018-12-20T02:53:37.713Z,14.20
2018-12-20T02:56:06.016Z,14.10
2018-12-20T02:58:34.555Z,13.53
2018-12-20T03:01:02.789Z,13.72
2018-12-20T03:03:31.044Z,13.58
2018-12-20T03:05:59.283Z,12.95
2018-12-20T03:08:27.487Z,13.32
2018-12-20T03:10:55.972Z,14.23
2018-12-20T03:13:24.346Z,13.93
2018-12-20T03:15:52.793Z,15.03
2018-12-20T03:18:21.047Z,13.83
2018-12-20T03:20:49.588Z,14.35
2018-12-20T03:23:17.864Z,15.10
2018-12-20T03:25:46.097Z,15.53
2018-12-20T03:28:14.397Z,15.53
2018-12-20T03:30:42.594Z,14.15
2018-12-20T03:33:10.922Z,15.38
2018-12-20T03:35:39.145Z,15.83
2018-12-20T03:38:07.645Z,14.10
2018-12-20T03:40:36.076Z,16.48
2018-12-20T03:43:04.319Z,14.53
2018-12-20T03:45:32.590Z,14.85
2018-12-20T03:48:00.972Z,14.50
2018-12-20T03:50:29.421Z,12.95
2018-12-20T03:52:57.665Z,14.33
2018-12-20T03:55:26.026Z,15.05
2018-12-20T03:57:54.482Z,14.15
2018-12-20T04:00:23.298Z,12.33
2018-12-20T04:02:51.489Z,13.80
2018-12-20T04:05:19.627Z,13.20
2018-12-20T04:07:47.757Z,14.58
2018-12-20T04:10:15.943Z,14.70
2018-12-20T04:12:44.281Z,15.80
2018-12-20T04:15:12.419Z,14.98
2018-12-20T04:17:40.585Z,14.15
2018-12-20T04:20:08.800Z,15.08
2018-12-20T04:22:37.149Z,14.80
2018-12-20T04:25:05.724Z,14.05
2018-12-20T04:27:34.158Z,14.90
2018-12-20T04:30:02.599Z,14.90
2018-12-20T04:32:30.839Z,14.38
2018-12-20T04:34:59.074Z,13.58
2018-12-20T04:37:27.280Z,14.73
2018-12-20T04:39:55.464Z,13.90
2018-12-20T04:42:23.804Z,12.65
2018-12-20T04:44:52.073Z,12.55
2018-12-20T04:47:20.546Z,11.43
2018-12-20T04:49:48.823Z,11.63
2018-12-20T04:52:17.076Z,11.40
2018-12-20T04:54:45.607Z,12.23
2018-12-20T04:57:14.162Z,11.83
2018-12-20T04:59:42.490Z,11.68
2018-12-20T05:02:10.911Z,11.28
2018-12-20T05:04:39.203Z,10.30
2018-12-20T05:07:07.459Z,10.23
2018-12-20T05:09:35.669Z,9.73
2018-12-20T05:12:03.965Z,11.38
2018-12-20T05:14:32.158Z,9.88
2018-12-20T05:17:00.695Z,10.48
2018-12-20T05:19:28.866Z,11.33
2018-12-20T05:21:57.095Z,10.38
2018-12-20T05:24:25.291Z,9.58
2018-12-20T05:26:53.632Z,10.80
2018-12-20T05:29:22.048Z,11.40
2018-12-20T05:31:50.233Z,11.53
2018-12-20T05:34:18.584Z,10.23
2018-12-20T05:36:46.934Z,11.03
2018-12-20T05:39:15.168Z,11.12
2018-12-20T05:41:43.401Z,11.50
2018-12-20T05:44:11.959Z,9.60
2018-12-20T05:46:40.550Z,9.80
2018-12-20T05:49:08.771Z,9.88
2018-12-20T05:51:39.657Z,10.82
2018-12-20T05:54:07.945Z,10.00
2018-12-20T05:56:37.537Z,10.32
2018-12-20T05:59:05.867Z,10.88
2018-12-20T06:01:34.134Z,9.73
2018-12-20T06:04:02.687Z,9.88
2018-12-20T06:06:30.973Z,9.98
2018-12-20T06:08:59.206Z,10.32
2018-12-20T06:11:27.436Z,10.55
2018-12-20T06:13:55.797Z,11.63
2018-12-20T06:16:24.102Z,11.40
2018-12-20T06:18:52.329Z,10.87
2018-12-20T06:21:20.608Z,11.25
2018-12-20T06:23:48.904Z,9.30
2018-12-20T06:26:17.134Z,10.70
2018-12-20T06:28:45.356Z,11.10
2018-12-20T06:31:13.555Z,10.95
2018-12-20T06:33:41.720Z,10.00
2018-12-20T06:36:09.991Z,9.35
2018-12-20T06:38:38.206Z,11.33
2018-12-20T06:41:06.352Z,9.45
2018-12-20T06:43:34.516Z,10.95
2018-12-20T06:46:02.662Z,10.20
2018-12-20T06:48:30.815Z,10.32
2018-12-20T06:50:59.042Z,10.80
2018-12-20T06:53:27.228Z,10.82
2018-12-20T06:55:55.388Z,10.65
2018-12-20T06:58:23.609Z,11.33
2018-12-20T07:00:51.769Z,10.82
2018-12-20T07:03:19.984Z,10.48
2018-12-20T07:05:48.142Z,10.18
2018-12-20T07:08:16.385Z,10.23
2018-12-20T07:10:44.627Z,9.30
2018-12-20T07:13:12.778Z,10.80
2018-12-20T07:15:40.939Z,9.80
2018-12-20T07:18:09.070Z,9.45
2018-12-20T07:20:37.244Z,10.30
2018-12-20T07:23:05.365Z,11.70
2018-12-20T07:25:33.522Z,10.68
2018-12-20T07:28:01.675Z,11.48
2018-12-20T07:30:29.826Z,10.15
2018-12-20T07:32:57.976Z,10.15
2018-12-20T07:35:26.228Z,10.13
2018-12-20T07:37:54.379Z,11.05
2018-12-20T07:40:22.796Z,11.57
2018-12-20T07:42:51.012Z,9.55
2018-12-20T07:45:19.228Z,10.15
2018-12-20T07:47:47.456Z,8.85
2018-12-20T07:50:15.680Z,10.50
2018-12-20T07:52:43.848Z,9.85
2018-12-20T07:55:12.061Z,10.35
2018-12-20T07:57:40.205Z,9.73
2018-12-20T08:00:08.351Z,8.55
2018-12-20T08:02:36.579Z,9.18
2018-12-20T08:05:04.867Z,8.63
2018-12-20T08:07:33.088Z,10.05
2018-12-20T08:10:01.236Z,8.10
2018-12-20T08:12:29.375Z,8.00
2018-12-20T08:14:57.508Z,7.47
2018-12-20T08:17:25.732Z,6.50
2018-12-20T08:19:53.933Z,7.10
2018-12-20T08:22:22.085Z,5.83
2018-12-20T08:24:50.264Z,7.45
2018-12-20T08:27:18.486Z,5.85
2018-12-20T08:29:47.361Z,5.37
2018-12-20T08:32:15.735Z,6.55
2018-12-20T08:34:43.913Z,6.95
2018-12-20T08:37:12.167Z,6.80
2018-12-20T08:39:40.413Z,6.22
2018-12-20T08:42:08.738Z,5.40
2018-12-20T08:44:36.893Z,6.42
2018-12-20T08:47:05.054Z,6.03
2018-12-20T08:49:33.179Z,5.22
2018-12-20T08:52:01.406Z,3.10
2018-12-20T08:54:29.573Z,3.10
2018-12-20T08:56:57.708Z,2.62
2018-12-20T08:59:25.839Z,2.42
2018-12-20T09:01:53.971Z,2.52
2018-12-20T09:04:22.189Z,4.23
2018-12-20T09:06:51.556Z,4.33
2018-12-20T09:09:19.690Z,3.90
2018-12-20T09:11:47.826Z,2.30
2018-12-20T09:14:16.298Z,3.43
2018-12-20T09:16:44.663Z,3.40
2018-12-20T09:19:12.814Z,3.00
2018-12-20T09:21:41.019Z,2.20
2018-12-20T09:24:09.173Z,2.63
2018-12-20T09:26:37.298Z,3.10
2018-12-20T09:29:05.443Z,3.57
2018-12-20T09:31:33.603Z,2.67
2018-12-20T09:34:01.764Z,2.77
2018-12-20T09:36:29.905Z,2.77
2018-12-20T09:38:58.056Z,3.00
2018-12-20T09:41:26.202Z,2.60
2018-12-20T09:43:54.330Z,3.13
2018-12-20T09:46:22.480Z,3.30
2018-12-20T09:48:50.693Z,2.73
2018-12-20T09:51:18.909Z,2.83
2018-12-20T09:53:47.086Z,3.17
2018-12-20T09:56:15.218Z,3.57
2018-12-20T09:58:43.347Z,2.70
2018-12-20T10:01:11.497Z,2.30
2018-12-20T10:03:39.648Z,2.33
2018-12-20T10:06:07.768Z,3.47
2018-12-20T10:08:35.897Z,2.80
2018-12-20T10:11:04.175Z,2.33
2018-12-20T10:13:32.308Z,2.17
2018-12-20T10:16:00.428Z,2.63
2018-12-20T10:18:28.581Z,2.30
2018-12-20T10:20:56.717Z,2.23
2018-12-20T10:23:24.857Z,2.80
2018-12-20T10:25:53.008Z,2.40
2018-12-20T10:28:21.133Z,2.20
2018-12-20T10:30:49.283Z,2.30
2018-12-20T10:33:17.789Z,2.30
2018-12-20T10:35:46.041Z,3.07
2018-12-20T10:38:14.179Z,3.00
2018-12-20T10:40:43.904Z,2.40
2018-12-20T10:43:12.056Z,2.80
2018-12-20T10:45:40.189Z,2.40
2018-12-20T10:48:08.376Z,2.90
2018-12-20T10:50:36.601Z,2.60
2018-12-20T10:53:04.942Z,3.27
2018-12-20T10:55:33.181Z,2.77
2018-12-20T10:58:01.413Z,3.37
2018-12-20T11:00:34.036Z,2.47
2018-12-20T11:03:07.588Z,3.00
2018-12-20T11:05:41.312Z,2.40
2018-12-20T11:08:15.040Z,3.27
2018-12-20T11:10:43.219Z,2.60
2018-12-20T11:13:16.916Z,2.80
2018-12-20T11:15:45.104Z,2.90
2018-12-20T11:18:13.265Z,3.00
2018-12-20T11:20:41.426Z,2.67
2018-12-20T11:23:09.771Z,2.43
2018-12-20T11:25:37.991Z,2.70
2018-12-20T11:28:06.215Z,3.30
2018-12-20T11:30:34.462Z,3.10
2018-12-20T11:33:02.631Z,2.40
2018-12-20T11:35:30.877Z,2.95
2018-12-20T11:37:59.038Z,3.50
2018-12-20T11:40:27.188Z,3.37
2018-12-20T11:42:55.493Z,3.43
2018-12-20T11:45:23.740Z,3.57
2018-12-20T11:47:51.956Z,2.93
2018-12-20T11:50:20.122Z,3.07
2018-12-20T11:52:48.303Z,2.83
2018-12-20T11:55:16.620Z,3.57
2018-12-20T11:57:44.882Z,3.60
2018-12-20T12:03:11.553Z,2.87
2018-12-20T12:05:45.411Z,2.85
2018-12-20T12:08:19.544Z,3.33
2018-12-20T12:10:51.465Z,3.07
2018-12-20T12:13:25.851Z,3.40
2018-12-20T12:16:00.809Z,2.83
2018-12-20T12:18:29.104Z,2.90
2018-12-20T12:20:57.352Z,3.00
2018-12-20T12:23:25.604Z,2.90
2018-12-20T12:25:53.818Z,2.60
2018-12-20T12:28:21.975Z,2.20
2018-12-20T12:30:50.169Z,2.40
2018-12-20T12:33:18.351Z,2.30
2018-12-20T12:35:46.596Z,2.50
2018-12-20T12:38:14.760Z,2.80
2018-12-20T12:40:42.979Z,2.70
2018-12-20T12:43:11.159Z,2.20
2018-12-20T12:45:39.404Z,2.70
2018-12-20T12:48:07.693Z,2.50
2018-12-20T12:50:35.910Z,2.30
2018-12-20T12:53:04.288Z,2.50
2018-12-20T12:55:40.099Z,2.17
2018-12-20T12:58:08.272Z,2.20
2018-12-20T13:00:36.430Z,2.40
2018-12-20T13:03:04.717Z,2.90
2018-12-20T13:05:32.955Z,2.80
2018-12-20T13:08:01.131Z,2.33
2018-12-20T13:10:29.297Z,2.53
2018-12-20T13:12:57.451Z,2.70
2018-12-20T13:15:25.672Z,2.80
2018-12-20T13:17:53.811Z,2.60
2018-12-20T13:20:22.025Z,2.60
2018-12-20T13:22:50.211Z,2.50
2018-12-20T13:25:18.368Z,2.40
2018-12-20T13:27:46.503Z,2.60
2018-12-20T13:30:14.828Z,2.67
2018-12-20T13:32:42.963Z,3.30
2018-12-20T13:35:11.206Z,2.70
2018-12-20T13:37:39.364Z,3.13
2018-12-20T13:40:07.772Z,2.83
2018-12-20T13:42:36.024Z,3.00
2018-12-20T13:45:05.394Z,3.30
2018-12-20T13:47:33.532Z,3.07
2018-12-20T13:50:01.767Z,3.00
2018-12-20T13:52:32.003Z,3.20
2018-12-20T13:55:00.284Z,3.00
2018-12-20T13:57:29.547Z,3.30
2018-12-20T13:59:57.739Z,4.03
2018-12-20T14:02:25.913Z,2.70
2018-12-20T14:04:54.070Z,3.97
2018-12-20T14:07:22.236Z,3.17
2018-12-20T14:09:50.415Z,3.20
2018-12-20T14:12:18.648Z,3.10
2018-12-20T14:14:46.907Z,3.60
2018-12-20T14:17:15.064Z,3.53
2018-12-20T14:19:43.240Z,3.80
2018-12-20T14:22:11.407Z,4.00
2018-12-20T14:24:39.567Z,4.08
2018-12-20T14:27:07.730Z,5.00
2018-12-20T14:29:35.899Z,7.27
2018-12-20T14:32:04.063Z,10.80
2018-12-20T14:34:32.241Z,10.37
2018-12-20T14:37:00.456Z,8.67
2018-12-20T14:39:28.603Z,7.00
2018-12-20T14:41:56.740Z,6.37
2018-12-20T14:44:24.913Z,4.90
2018-12-20T14:46:53.143Z,3.90
2018-12-20T14:49:21.296Z,4.23
2018-12-20T14:51:49.453Z,5.10
2018-12-20T14:54:17.608Z,4.10
2018-12-20T14:56:45.791Z,4.33
2018-12-20T14:59:13.936Z,5.10
2018-12-20T15:01:42.153Z,3.67
2018-12-20T15:04:10.347Z,4.55
2018-12-20T15:06:38.752Z,4.03
2018-12-20T15:09:07.944Z,4.77
2018-12-20T15:11:36.272Z,4.10
2018-12-20T15:14:04.511Z,3.70
2018-12-20T15:16:32.741Z,3.67
2018-12-20T15:19:00.903Z,3.25
2018-12-20T15:21:29.086Z,7.40
2018-12-20T15:23:57.221Z,3.50
2018-12-20T15:26:25.388Z,3.33
2018-12-20T15:28:53.548Z,3.15
2018-12-20T15:31:21.819Z,3.97
2018-12-20T15:33:50.050Z,5.10
2018-12-20T15:36:18.289Z,3.90
2018-12-20T15:38:46.448Z,4.62
2018-12-20T15:41:14.604Z,4.10
2018-12-20T15:43:42.949Z,4.70
2018-12-20T15:46:11.275Z,4.65
2018-12-20T15:48:39.434Z,5.40
2018-12-20T15:51:07.592Z,4.85
2018-12-20T15:53:35.744Z,4.75
2018-12-20T15:56:03.972Z,5.45
2018-12-20T15:58:32.136Z,4.80
2018-12-20T16:01:00.393Z,5.22
2018-12-20T16:03:28.563Z,5.35
2018-12-20T16:05:56.723Z,5.90
2018-12-20T16:08:24.892Z,8.45
2018-12-20T16:10:53.060Z,7.65
2018-12-20T16:13:21.371Z,6.03
2018-12-20T16:15:49.556Z,5.92
2018-12-20T16:18:17.791Z,5.50
2018-12-20T16:20:45.967Z,5.05
2018-12-20T16:23:14.136Z,4.70
2018-12-20T16:25:42.317Z,4.92
2018-12-20T16:28:10.585Z,4.17
2018-12-20T16:30:38.957Z,4.20
2018-12-20T16:33:07.208Z,4.53
2018-12-20T16:35:35.407Z,5.28
2018-12-20T16:38:03.621Z,4.30
2018-12-20T16:40:31.777Z,4.22
2018-12-20T16:42:59.936Z,12.47
2018-12-20T16:45:28.125Z,9.93
2018-12-20T16:47:56.356Z,9.83
2018-12-20T16:50:24.521Z,11.78
2018-12-20T16:52:52.752Z,5.87
2018-12-20T16:55:21.886Z,6.15
2018-12-20T16:57:50.038Z,7.65
2018-12-20T17:00:18.192Z,6.30
2018-12-20T17:02:46.472Z,5.95
2018-12-20T17:05:14.644Z,6.03
2018-12-20T17:07:42.799Z,9.18
2018-12-20T17:10:11.133Z,13.60
2018-12-20T17:12:39.373Z,13.68
2018-12-20T17:15:07.631Z,17.62
2018-12-20T17:17:35.800Z,16.37
2018-12-20T17:20:04.582Z,16.17
2018-12-20T17:22:33.069Z,49.80
2018-12-20T17:25:01.349Z,12.65
2018-12-20T17:27:29.808Z,9.03
2018-12-20T17:29:58.601Z,11.10
2018-12-20T17:32:26.765Z,7.20
2018-12-20T17:34:54.960Z,5.78
2018-12-20T17:37:23.113Z,6.72
2018-12-20T17:39:51.287Z,7.95
2018-12-20T17:42:19.494Z,7.55
2018-12-20T17:44:47.795Z,8.03
2018-12-20T17:47:16.085Z,5.75
2018-12-20T17:49:44.258Z,6.00
2018-12-20T17:52:12.526Z,6.83
2018-12-20T17:54:40.692Z,5.60
2018-12-20T17:57:08.873Z,7.00
2018-12-20T17:59:37.062Z,6.22
2018-12-20T18:02:05.374Z,6.00
2018-12-20T18:04:33.577Z,5.15
2018-12-20T18:07:01.747Z,6.35
2018-12-20T18:09:29.903Z,4.95
2018-12-20T18:11:58.072Z,6.47
2018-12-20T18:14:26.271Z,4.60
2018-12-20T18:16:54.445Z,4.40
2018-12-20T18:19:22.708Z,4.70
2018-12-20T18:21:50.884Z,5.50
2018-12-20T18:24:19.177Z,3.70
2018-12-20T18:26:48.144Z,4.60
2018-12-20T18:29:16.340Z,4.53
2018-12-20T18:31:44.612Z,4.40
2018-12-20T18:34:12.845Z,3.75
2018-12-20T18:36:41.003Z,3.05
2018-12-20T18:39:09.180Z,3.60
2018-12-20T18:41:38.351Z,4.00
2018-12-20T18:44:06.580Z,3.83
2018-12-20T18:46:34.846Z,4.15
2018-12-20T18:49:03.217Z,4.30
2018-12-20T18:51:31.423Z,4.87
2018-12-20T18:53:59.589Z,4.53
2018-12-20T18:56:28.054Z,5.53
2018-12-20T18:59:02.373Z,6.92
2018-12-20T19:01:37.237Z,5.47
2018-12-20T19:04:13.710Z,5.28
2018-12-20T19:06:42.402Z,4.78
2018-12-20T19:09:16.512Z,4.97
2018-12-20T19:17:50.518Z,5.25
2018-12-20T19:20:25.034Z,4.20
2018-12-20T19:23:16.327Z,4.40
2018-12-20T19:25:44.581Z,4.47
2018-12-20T19:28:12.751Z,4.47
2018-12-20T19:30:40.967Z,5.60
2018-12-20T19:33:09.283Z,5.12
2018-12-20T19:35:56.345Z,4.47
2018-12-20T19:38:24.529Z,5.15
2018-12-20T19:40:54.368Z,4.97
2018-12-20T19:43:22.722Z,4.72
2018-12-20T19:45:54.844Z,6.67
2018-12-20T19:57:45.865Z,4.10
2018-12-20T20:00:23.861Z,4.75
2018-12-20T20:11:58.445Z,3.65
2018-12-20T20:14:49.859Z,3.67
2018-12-20T20:17:18.117Z,3.67
2018-12-20T20:19:46.284Z,3.20
2018-12-20T20:22:14.462Z,3.80
2018-12-20T20:24:42.711Z,3.42
2018-12-20T20:27:10.890Z,3.30
2018-12-20T20:29:39.071Z,3.08
2018-12-20T20:32:07.312Z,4.00
2018-12-20T20:34:35.459Z,3.67
2018-12-20T20:37:03.704Z,3.55
2018-12-20T20:39:32.872Z,6.12
2018-12-20T20:42:01.067Z,4.00
2018-12-20T20:44:33.198Z,3.85
2018-12-20T20:47:01.373Z,4.70
2018-12-20T20:49:29.534Z,3.65
2018-12-20T20:58:01.739Z,3.98
2018-12-20T21:00:33.251Z,4.60
2018-12-20T21:03:01.429Z,5.05
2018-12-20T21:05:32.726Z,4.30
2018-12-20T21:11:11.616Z,4.30
2018-12-20T21:13:39.868Z,4.35
2018-12-20T21:16:11.514Z,3.58
2018-12-20T21:18:46.990Z,4.90
2018-12-20T21:30:28.857Z,4.03
2018-12-20T21:32:57.176Z,3.83
2018-12-20T21:35:30.944Z,4.15
2018-12-20T21:38:05.097Z,4.50
2018-12-20T21:40:37.263Z,3.80
2018-12-20T21:43:08.516Z,3.83
2018-12-20T21:45:42.870Z,4.25
2018-12-20T21:48:17.250Z,3.42
2018-12-20T21:50:48.983Z,4.20
2018-12-20T21:53:20.523Z,3.60
2018-12-20T21:55:52.661Z,3.58
2018-12-20T21:58:24.471Z,3.50
2018-12-20T22:00:58.970Z,3.10
2018-12-20T22:03:32.901Z,3.00
2018-12-20T22:06:02.363Z,3.17
2018-12-20T22:08:36.418Z,3.27
2018-12-20T22:11:12.134Z,3.37
2018-12-20T22:13:46.267Z,3.15
2018-12-20T22:16:17.793Z,3.42
2018-12-20T22:18:52.667Z,3.75
2018-12-20T22:21:24.003Z,3.55
2018-12-20T22:23:55.935Z,3.80
2018-12-20T22:26:27.848Z,3.70
2018-12-20T22:28:59.792Z,3.77
2018-12-20T22:31:31.819Z,3.75
2018-12-20T22:34:07.122Z,3.77
2018-12-20T22:36:41.373Z,3.87
2018-12-20T22:39:13.604Z,4.37
2018-12-20T22:41:47.868Z,3.83
2018-12-20T22:44:19.204Z,4.17
2018-12-20T22:46:51.154Z,3.87
2018-12-20T22:49:23.267Z,4.00
2018-12-20T22:51:55.299Z,3.55
2018-12-20T22:54:27.251Z,3.10
2018-12-20T22:56:59.103Z,3.20
2018-12-20T22:59:31.135Z,3.60
2018-12-20T23:02:03.227Z,3.10
2018-12-20T23:04:35.313Z,3.55
2018-12-20T23:07:09.629Z,3.35
2018-12-20T23:09:41.299Z,2.98
2018-12-20T23:12:12.816Z,3.72
2018-12-20T23:14:47.060Z,3.12
2018-12-20T23:17:18.603Z,3.67
2018-12-20T23:22:19.062Z,3.25
2018-12-20T23:24:50.873Z,3.10
2018-12-20T23:27:20.544Z,2.85
2018-12-20T23:29:54.829Z,2.85
2018-12-20T23:32:26.376Z,2.95
2018-12-20T23:34:58.311Z,3.47
2018-12-20T23:37:32.564Z,2.75
2018-12-20T23:40:06.285Z,2.80
2018-12-20T23:42:37.983Z,2.52
2018-12-20T23:45:12.149Z,2.85
2018-12-20T23:47:45.940Z,2.20
2018-12-20T23:50:14.135Z,3.67
2018-12-20T23:52:46.062Z,3.27
2018-12-20T23:55:20.516Z,3.55
2018-12-20T23:57:55.122Z,6.58
